createdAt,value
2024-03-28T00:00:51.374Z,981.35
2024-03-28T00:01:47.516Z,981.37
2024-03-28T00:02:47.484Z,981.37
2024-03-28T00:03:47.471Z,981.35
2024-03-28T00:04:47.467Z,981.42
2024-03-28T00:05:47.466Z,981.37
2024-03-28T00:06:47.458Z,981.35
2024-03-28T00:07:47.426Z,981.37
2024-03-28T00:08:47.420Z,981.42
2024-03-28T00:09:47.411Z,981.41
2024-03-28T00:10:47.417Z,981.44
2024-03-28T00:11:47.383Z,981.42
2024-03-28T00:12:47.374Z,981.38
2024-03-28T00:13:47.360Z,981.38
2024-03-28T00:14:47.368Z,981.37
2024-03-28T00:15:47.363Z,981.37
2024-03-28T00:16:47.331Z,981.34
2024-03-28T00:17:47.323Z,981.35
2024-03-28T00:18:47.309Z,981.28
2024-03-28T00:19:47.316Z,981.33
2024-03-28T00:20:47.299Z,981.33
2024-03-28T00:21:47.276Z,981.31
2024-03-28T00:22:47.258Z,981.29
2024-03-28T00:23:47.251Z,981.26
2024-03-28T00:24:47.250Z,981.24
2024-03-28T00:25:47.237Z,981.23
2024-03-28T00:26:47.213Z,981.24
2024-03-28T00:27:47.220Z,981.24
2024-03-28T00:28:47.207Z,981.20
2024-03-28T00:29:47.204Z,981.22
2024-03-28T00:30:47.174Z,981.23
2024-03-28T00:31:47.165Z,981.17
2024-03-28T00:32:47.163Z,981.17
2024-03-28T00:33:47.151Z,981.15
2024-03-28T00:34:47.151Z,981.16
2024-03-28T00:35:47.116Z,981.19
2024-03-28T00:36:47.107Z,981.18
2024-03-28T00:37:47.095Z,981.18
2024-03-28T00:38:47.098Z,981.18
2024-03-28T00:39:47.074Z,981.16
2024-03-28T00:40:47.057Z,981.18
2024-03-28T00:41:47.055Z,981.20
2024-03-28T00:42:47.037Z,981.21
2024-03-28T00:43:47.048Z,981.18
2024-03-28T00:44:47.020Z,981.23
2024-03-28T00:45:47.033Z,981.20
2024-03-28T00:46:46.993Z,981.22
2024-03-28T00:47:47.003Z,981.26
2024-03-28T00:48:47.010Z,981.26
2024-03-28T00:49:46.993Z,981.30
2024-03-28T00:50:46.955Z,981.30
2024-03-28T00:51:46.936Z,981.29
2024-03-28T00:52:46.931Z,981.30
2024-03-28T00:53:46.918Z,981.29
2024-03-28T00:54:46.905Z,981.30
2024-03-28T00:55:46.894Z,981.30
2024-03-28T00:56:46.879Z,981.29
2024-03-28T00:57:46.887Z,981.29
2024-03-28T00:58:46.856Z,981.26
2024-03-28T00:59:46.849Z,981.23
2024-03-28T01:00:46.833Z,981.20
2024-03-28T01:01:46.839Z,981.17
2024-03-28T01:02:46.824Z,981.21
2024-03-28T01:03:46.818Z,981.17
2024-03-28T01:04:46.788Z,981.14
2024-03-28T01:05:46.781Z,981.16
2024-03-28T01:06:46.789Z,981.07
2024-03-28T01:07:46.760Z,981.08
2024-03-28T01:08:46.749Z,981.05
2024-03-28T01:09:46.747Z,981.00
2024-03-28T01:10:46.734Z,980.99
2024-03-28T01:11:46.734Z,980.97
2024-03-28T01:12:46.698Z,980.95
2024-03-28T01:13:46.696Z,980.94
2024-03-28T01:14:46.690Z,980.90
2024-03-28T01:15:46.671Z,980.87
2024-03-28T01:16:46.667Z,980.90
2024-03-28T01:17:46.645Z,980.90
2024-03-28T01:18:46.643Z,980.88
2024-03-28T01:19:46.627Z,980.84
2024-03-28T01:20:46.625Z,980.85
2024-03-28T01:21:46.617Z,980.83
2024-03-28T01:22:46.592Z,980.81
2024-03-28T01:23:46.583Z,980.78
2024-03-28T01:24:46.564Z,980.79
2024-03-28T01:25:46.574Z,980.76
2024-03-28T01:26:46.548Z,980.74
2024-03-28T01:27:46.549Z,980.72
2024-03-28T01:28:46.528Z,980.71
2024-03-28T01:29:46.524Z,980.74
2024-03-28T01:30:46.506Z,980.71
2024-03-28T01:31:46.491Z,980.67
2024-03-28T01:32:46.476Z,980.63
2024-03-28T01:33:46.468Z,980.62
2024-03-28T01:34:46.467Z,980.68
2024-03-28T01:35:46.460Z,980.59
2024-03-28T01:36:46.429Z,980.62
2024-03-28T01:37:46.424Z,980.60
2024-03-28T01:38:46.421Z,980.61
2024-03-28T01:39:46.422Z,980.57
2024-03-28T01:40:46.386Z,980.59
2024-03-28T01:41:46.378Z,980.56
2024-03-28T01:42:46.362Z,980.58
2024-03-28T01:43:46.358Z,980.60
2024-03-28T01:44:46.353Z,980.58
2024-03-28T01:45:46.340Z,980.58
2024-03-28T01:46:53.537Z,980.55
2024-03-28T01:47:54.148Z,980.55
2024-03-28T01:48:46.309Z,980.56
2024-03-28T01:49:46.298Z,980.55
2024-03-28T01:50:46.270Z,980.52
2024-03-28T01:51:46.270Z,980.46
2024-03-28T01:52:46.253Z,980.46
2024-03-28T01:53:46.257Z,980.45
2024-03-28T01:54:46.231Z,980.45
2024-03-28T01:55:46.222Z,980.46
2024-03-28T01:56:46.210Z,980.49
2024-03-28T01:57:46.204Z,980.44
2024-03-28T01:58:46.193Z,980.41
2024-03-28T01:59:46.182Z,980.44
2024-03-28T02:00:46.179Z,980.44
2024-03-28T02:01:46.155Z,980.42
2024-03-28T02:02:46.151Z,980.40
2024-03-28T02:03:46.142Z,980.41
2024-03-28T02:04:46.120Z,980.37
2024-03-28T02:05:46.116Z,980.37
2024-03-28T02:06:46.092Z,980.41
2024-03-28T02:07:46.097Z,980.39
2024-03-28T02:08:46.077Z,980.34
2024-03-28T02:09:46.062Z,980.36
2024-03-28T02:10:46.056Z,980.34
2024-03-28T02:11:46.043Z,980.38
2024-03-28T02:12:46.046Z,980.36
2024-03-28T02:13:46.022Z,980.35
2024-03-28T02:14:46.028Z,980.38
2024-03-28T02:15:45.998Z,980.32
2024-03-28T02:16:46.001Z,980.33
2024-03-28T02:17:45.997Z,980.27
2024-03-28T02:18:45.974Z,980.27
2024-03-28T02:19:45.953Z,980.26
2024-03-28T02:20:45.939Z,980.26
2024-03-28T02:21:45.947Z,980.26
2024-03-28T02:22:45.924Z,980.27
2024-03-28T02:23:45.913Z,980.26
2024-03-28T02:24:45.894Z,980.28
2024-03-28T02:25:45.890Z,980.33
2024-03-28T02:26:45.888Z,980.31
2024-03-28T02:27:45.870Z,980.36
2024-03-28T02:28:45.857Z,980.36
2024-03-28T02:29:45.852Z,980.40
2024-03-28T02:30:45.838Z,980.42
2024-03-28T02:31:45.827Z,980.41
2024-03-28T02:32:45.813Z,980.47
2024-03-28T02:33:45.804Z,980.43
2024-03-28T02:34:45.789Z,980.46
2024-03-28T02:35:45.791Z,980.50
2024-03-28T02:36:45.766Z,980.49
2024-03-28T02:37:45.760Z,980.53
2024-03-28T02:38:45.739Z,980.56
2024-03-28T02:39:45.734Z,980.56
2024-03-28T02:40:47.039Z,980.59
2024-03-28T02:41:45.731Z,980.59
2024-03-28T02:42:45.711Z,980.59
2024-03-28T02:43:45.701Z,980.58
2024-03-28T02:44:45.676Z,980.57
2024-03-28T02:45:45.676Z,980.63
2024-03-28T02:46:45.664Z,980.61
2024-03-28T02:47:45.642Z,980.61
2024-03-28T02:48:45.629Z,980.59
2024-03-28T02:49:45.629Z,980.63
2024-03-28T02:50:45.648Z,980.61
2024-03-28T02:51:45.593Z,980.60
2024-03-28T02:52:45.593Z,980.61
2024-03-28T02:53:45.574Z,980.61
2024-03-28T02:54:45.576Z,980.62
2024-03-28T02:55:45.551Z,980.66
2024-03-28T02:56:45.554Z,980.58
2024-03-28T02:57:45.526Z,980.55
2024-03-28T02:58:45.578Z,980.55
2024-03-28T02:59:45.526Z,980.51
2024-03-28T03:00:45.498Z,980.49
2024-03-28T03:01:45.487Z,980.45
2024-03-28T03:02:45.476Z,980.40
2024-03-28T03:03:45.461Z,980.40
2024-03-28T03:04:45.467Z,980.36
2024-03-28T03:05:45.440Z,980.36
2024-03-28T03:06:45.569Z,980.34
2024-03-28T03:07:45.416Z,980.30
2024-03-28T03:08:45.428Z,980.31
2024-03-28T03:09:45.442Z,980.29
2024-03-28T03:10:45.450Z,980.29
2024-03-28T03:11:45.372Z,980.26
2024-03-28T03:12:45.373Z,980.24
2024-03-28T03:13:45.363Z,980.17
2024-03-28T03:14:45.345Z,980.19
2024-03-28T03:15:45.339Z,980.21
2024-03-28T03:16:45.324Z,980.23
2024-03-28T03:17:45.303Z,980.25
2024-03-28T03:18:45.313Z,980.23
2024-03-28T03:19:45.282Z,980.25
2024-03-28T03:20:45.276Z,980.23
2024-03-28T03:21:45.271Z,980.24
2024-03-28T03:22:45.260Z,980.29
2024-03-28T03:23:48.175Z,980.27
2024-03-28T03:24:45.233Z,980.29
2024-03-28T03:25:45.220Z,980.31
2024-03-28T03:26:45.203Z,980.28
2024-03-28T03:27:45.227Z,980.34
2024-03-28T03:28:45.183Z,980.29
2024-03-28T03:29:45.181Z,980.29
2024-03-28T03:30:45.169Z,980.23
2024-03-28T03:31:45.154Z,980.20
2024-03-28T03:32:45.153Z,980.23
2024-03-28T03:33:45.137Z,980.28
2024-03-28T03:34:45.115Z,980.29
2024-03-28T03:35:45.114Z,980.30
2024-03-28T03:36:45.140Z,980.33
2024-03-28T03:37:45.097Z,980.32
2024-03-28T03:38:45.070Z,980.34
2024-03-28T03:39:45.087Z,980.31
2024-03-28T03:40:45.050Z,980.28
2024-03-28T03:41:45.053Z,980.33
2024-03-28T03:42:45.025Z,980.26
2024-03-28T03:43:45.039Z,980.23
2024-03-28T03:44:45.007Z,980.18
2024-03-28T03:45:44.998Z,980.16
2024-03-28T03:46:47.421Z,980.12
2024-03-28T03:47:44.977Z,980.15
2024-03-28T03:48:44.961Z,980.17
2024-03-28T03:49:44.956Z,980.17
2024-03-28T03:50:44.953Z,980.20
2024-03-28T03:51:44.942Z,980.25
2024-03-28T03:52:44.946Z,980.22
2024-03-28T03:53:44.912Z,980.23
2024-03-28T03:54:44.896Z,980.20
2024-03-28T03:55:44.899Z,980.21
2024-03-28T03:56:44.893Z,980.28
2024-03-28T03:57:44.864Z,980.21
2024-03-28T03:58:44.853Z,980.24
2024-03-28T03:59:44.860Z,980.21
2024-03-28T04:00:44.840Z,980.18
2024-03-28T04:01:44.820Z,980.13
2024-03-28T04:02:44.807Z,980.13
2024-03-28T04:03:44.816Z,980.10
2024-03-28T04:04:44.784Z,980.07
2024-03-28T04:05:44.802Z,980.09
2024-03-28T04:06:44.771Z,980.05
2024-03-28T04:07:44.756Z,980.09
2024-03-28T04:08:44.738Z,979.98
2024-03-28T04:09:44.746Z,979.95
2024-03-28T04:10:44.735Z,980.02
2024-03-28T04:11:44.715Z,979.97
2024-03-28T04:12:44.698Z,979.99
2024-03-28T04:13:44.692Z,979.98
2024-03-28T04:14:47.148Z,979.96
2024-03-28T04:15:44.676Z,979.98
2024-03-28T04:16:44.656Z,979.99
2024-03-28T04:17:44.646Z,979.96
2024-03-28T04:18:44.633Z,979.95
2024-03-28T04:19:44.661Z,979.92
2024-03-28T04:20:44.609Z,979.85
2024-03-28T04:21:44.601Z,979.87
2024-03-28T04:22:44.584Z,979.79
2024-03-28T04:23:44.605Z,979.80
2024-03-28T04:24:44.577Z,979.81
2024-03-28T04:25:44.559Z,979.79
2024-03-28T04:26:44.540Z,979.81
2024-03-28T04:27:44.536Z,979.78
2024-03-28T04:28:44.529Z,979.75
2024-03-28T04:29:52.412Z,979.75
2024-03-28T04:30:44.501Z,979.66
2024-03-28T04:31:44.487Z,979.67
2024-03-28T04:32:44.481Z,979.67
2024-03-28T04:33:44.478Z,979.68
2024-03-28T04:34:44.453Z,979.66
2024-03-28T04:35:44.474Z,979.65
2024-03-28T04:36:44.430Z,979.65
2024-03-28T04:37:44.442Z,979.70
2024-03-28T04:38:44.423Z,979.67
2024-03-28T04:39:44.417Z,979.64
2024-03-28T04:40:44.388Z,979.62
2024-03-28T04:41:44.382Z,979.61
2024-03-28T04:42:44.375Z,979.60
2024-03-28T04:43:44.361Z,979.60
2024-03-28T04:44:44.344Z,979.60
2024-03-28T04:45:44.384Z,979.56
2024-03-28T04:46:44.334Z,979.54
2024-03-28T04:47:44.324Z,979.56
2024-03-28T04:48:44.298Z,979.57
2024-03-28T04:49:44.305Z,979.56
2024-03-28T04:50:44.276Z,979.54
2024-03-28T04:51:44.277Z,979.55
2024-03-28T04:52:44.276Z,979.59
2024-03-28T04:53:44.247Z,979.51
2024-03-28T04:54:44.231Z,979.47
2024-03-28T04:55:44.230Z,979.44
2024-03-28T04:56:44.229Z,979.39
2024-03-28T04:57:44.252Z,979.36
2024-03-28T04:58:44.187Z,979.27
2024-03-28T04:59:44.179Z,979.23
2024-03-28T05:00:44.174Z,979.23
2024-03-28T05:01:44.209Z,979.20
2024-03-28T05:02:45.809Z,979.17
2024-03-28T05:03:44.144Z,979.15
2024-03-28T05:04:44.130Z,979.19
2024-03-28T05:05:44.134Z,979.12
2024-03-28T05:06:44.121Z,979.13
2024-03-28T05:07:44.096Z,979.09
2024-03-28T05:08:44.076Z,979.04
2024-03-28T05:09:44.071Z,979.04
2024-03-28T05:10:44.063Z,979.08
2024-03-28T05:11:44.051Z,979.06
2024-03-28T05:12:44.033Z,979.03
2024-03-28T05:13:44.026Z,979.01
2024-03-28T05:14:44.012Z,978.92
2024-03-28T05:15:44.025Z,978.94
2024-03-28T05:16:43.988Z,978.89
2024-03-28T05:17:43.989Z,978.78
2024-03-28T05:18:43.965Z,978.75
2024-03-28T05:19:43.969Z,978.70
2024-03-28T05:20:43.954Z,978.69
2024-03-28T05:21:43.935Z,978.60
2024-03-28T05:22:43.916Z,978.57
2024-03-28T05:23:43.916Z,978.54
2024-03-28T05:24:43.918Z,978.52
2024-03-28T05:25:43.893Z,978.49
2024-03-28T05:26:43.878Z,978.46
2024-03-28T05:27:43.873Z,978.51
2024-03-28T05:28:43.859Z,978.49
2024-03-28T05:29:43.874Z,978.50
2024-03-28T05:30:43.853Z,978.51
2024-03-28T05:31:43.843Z,978.53
2024-03-28T05:32:43.811Z,978.55
2024-03-28T05:33:43.920Z,978.53
2024-03-28T05:34:43.998Z,978.49
2024-03-28T05:35:43.782Z,978.55
2024-03-28T05:36:43.766Z,978.48
2024-03-28T05:37:43.770Z,978.48
2024-03-28T05:38:43.757Z,978.45
2024-03-28T05:39:43.742Z,978.49
2024-03-28T05:40:43.722Z,978.46
2024-03-28T05:41:43.719Z,978.46
2024-03-28T05:42:46.929Z,978.51
2024-03-28T05:43:43.717Z,978.50
2024-03-28T05:44:43.677Z,978.52
2024-03-28T05:45:43.676Z,978.57
2024-03-28T05:46:43.655Z,978.53
2024-03-28T05:47:43.658Z,978.57
2024-03-28T05:48:43.643Z,978.61
2024-03-28T05:49:43.629Z,978.59
2024-03-28T05:50:43.610Z,978.63
2024-03-28T05:51:43.604Z,978.66
2024-03-28T05:52:43.604Z,978.65
2024-03-28T05:53:43.581Z,978.64
2024-03-28T05:54:43.567Z,978.65
2024-03-28T05:55:43.561Z,978.66
2024-03-28T05:56:43.554Z,978.64
2024-03-28T05:57:43.548Z,978.61
2024-03-28T05:58:43.519Z,978.59
2024-03-28T05:59:43.516Z,978.61
2024-03-28T06:00:43.496Z,978.60
2024-03-28T06:01:43.508Z,978.57
2024-03-28T06:02:43.495Z,978.55
2024-03-28T06:03:43.480Z,978.57
2024-03-28T06:04:43.465Z,978.55
2024-03-28T06:05:43.448Z,978.53
2024-03-28T06:06:43.444Z,978.52
2024-03-28T06:07:43.426Z,978.51
2024-03-28T06:08:43.411Z,978.47
2024-03-28T06:09:43.431Z,978.51
2024-03-28T06:10:44.141Z,978.45
2024-03-28T06:11:43.395Z,978.42
2024-03-28T06:12:43.367Z,978.43
2024-03-28T06:13:43.361Z,978.44
2024-03-28T06:14:43.347Z,978.41
2024-03-28T06:15:43.350Z,978.42
2024-03-28T06:16:43.328Z,978.44
2024-03-28T06:17:43.317Z,978.43
2024-03-28T06:18:43.299Z,978.44
2024-03-28T06:19:43.295Z,978.44
2024-03-28T06:20:43.291Z,978.42
2024-03-28T06:21:43.268Z,978.47
2024-03-28T06:22:43.261Z,978.47
2024-03-28T06:23:43.246Z,978.50
2024-03-28T06:24:43.250Z,978.55
2024-03-28T06:25:43.240Z,978.54
2024-03-28T06:26:43.218Z,978.55
2024-03-28T06:27:43.200Z,978.57
2024-03-28T06:28:43.196Z,978.65
2024-03-28T06:29:43.194Z,978.61
2024-03-28T06:30:43.178Z,978.59
2024-03-28T06:31:43.156Z,978.62
2024-03-28T06:32:43.160Z,978.60
2024-03-28T06:33:43.132Z,978.60
2024-03-28T06:34:43.136Z,978.59
2024-03-28T06:35:43.128Z,978.55
2024-03-28T06:36:43.131Z,978.57
2024-03-28T06:37:43.092Z,978.57
2024-03-28T06:38:43.098Z,978.54
2024-03-28T06:39:43.086Z,978.52
2024-03-28T06:40:43.058Z,978.51
2024-03-28T06:41:43.059Z,978.50
2024-03-28T06:42:43.039Z,978.47
2024-03-28T06:43:43.033Z,978.43
2024-03-28T06:44:43.014Z,978.38
2024-03-28T06:45:43.008Z,978.31
2024-03-28T06:46:42.994Z,978.31
2024-03-28T06:47:42.986Z,978.26
2024-03-28T06:48:42.992Z,978.23
2024-03-28T06:49:42.958Z,978.24
2024-03-28T06:50:42.958Z,978.25
2024-03-28T06:51:42.945Z,978.32
2024-03-28T06:52:42.952Z,978.31
2024-03-28T06:53:42.935Z,978.30
2024-03-28T06:54:42.909Z,978.28
2024-03-28T06:55:42.892Z,978.29
2024-03-28T06:56:43.001Z,978.25
2024-03-28T06:57:42.878Z,978.23
2024-03-28T06:58:42.855Z,978.17
2024-03-28T06:59:42.853Z,978.20
2024-03-28T07:00:42.838Z,978.21
2024-03-28T07:01:42.834Z,978.16
2024-03-28T07:02:42.822Z,978.16
2024-03-28T07:03:44.744Z,978.14
2024-03-28T07:04:42.795Z,978.11
2024-03-28T07:05:42.781Z,978.09
2024-03-28T07:06:42.783Z,978.09
2024-03-28T07:07:42.789Z,978.08
2024-03-28T07:08:42.748Z,978.13
2024-03-28T07:09:42.736Z,978.15
2024-03-28T07:10:42.738Z,978.12
2024-03-28T07:11:42.729Z,978.09
2024-03-28T07:12:42.726Z,978.09
2024-03-28T07:13:42.692Z,978.09
2024-03-28T07:14:42.679Z,978.05
2024-03-28T07:15:42.672Z,978.09
2024-03-28T07:16:42.672Z,978.18
2024-03-28T07:17:42.653Z,978.17
2024-03-28T07:18:42.632Z,978.27
2024-03-28T07:19:42.629Z,978.28
2024-03-28T07:20:42.621Z,978.27
2024-03-28T07:21:42.622Z,978.27
2024-03-28T07:22:42.624Z,978.29
2024-03-28T07:23:42.581Z,978.23
2024-03-28T07:24:42.570Z,978.24
2024-03-28T07:25:42.574Z,978.24
2024-03-28T07:26:42.552Z,978.23
2024-03-28T07:27:42.556Z,978.27
2024-03-28T07:28:42.519Z,978.30
2024-03-28T07:29:42.508Z,978.38
2024-03-28T07:30:42.508Z,978.37
2024-03-28T07:31:42.492Z,978.35
2024-03-28T07:32:42.476Z,978.30
2024-03-28T07:33:42.467Z,978.27
2024-03-28T07:34:42.453Z,978.23
2024-03-28T07:35:42.465Z,978.34
2024-03-28T07:36:42.449Z,978.40
2024-03-28T07:37:42.436Z,978.41
2024-03-28T07:38:42.431Z,978.42
2024-03-28T07:39:42.410Z,978.44
2024-03-28T07:40:42.397Z,978.41
2024-03-28T07:41:42.385Z,978.38
2024-03-28T07:42:42.376Z,978.32
2024-03-28T07:43:42.387Z,978.26
2024-03-28T07:44:42.354Z,978.23
2024-03-28T07:45:42.338Z,978.26
2024-03-28T07:46:42.320Z,978.24
2024-03-28T07:47:42.312Z,978.16
2024-03-28T07:48:42.292Z,978.17
2024-03-28T07:49:42.308Z,978.11
2024-03-28T07:50:42.269Z,978.15
2024-03-28T07:51:42.269Z,978.18
2024-03-28T07:52:42.260Z,978.17
2024-03-28T07:53:42.243Z,978.18
2024-03-28T07:54:42.455Z,978.18
2024-03-28T07:55:42.221Z,978.14
2024-03-28T07:56:42.203Z,978.13
2024-03-28T07:57:42.199Z,978.12
2024-03-28T07:58:42.242Z,978.09
2024-03-28T07:59:42.186Z,978.07
2024-03-28T08:00:42.167Z,978.08
2024-03-28T08:01:42.154Z,978.07
2024-03-28T08:02:42.163Z,978.08
2024-03-28T08:03:42.150Z,978.10
2024-03-28T08:04:42.116Z,978.09
2024-03-28T08:05:42.107Z,978.13
2024-03-28T08:06:42.096Z,978.12
2024-03-28T08:07:42.097Z,978.15
2024-03-28T08:08:42.078Z,978.14
2024-03-28T08:09:42.069Z,978.13
2024-03-28T08:10:42.085Z,978.16
2024-03-28T08:11:42.050Z,978.16
2024-03-28T08:12:42.062Z,978.13
2024-03-28T08:13:42.058Z,978.18
2024-03-28T08:14:42.004Z,978.20
2024-03-28T08:15:42.011Z,978.20
2024-03-28T08:16:42.007Z,978.11
2024-03-28T08:17:41.988Z,978.09
2024-03-28T08:18:41.963Z,978.01
2024-03-28T08:19:41.965Z,978.02
2024-03-28T08:20:41.953Z,977.95
2024-03-28T08:21:41.968Z,977.99
2024-03-28T08:22:41.938Z,977.98
2024-03-28T08:23:41.911Z,977.93
2024-03-28T08:24:41.916Z,977.98
2024-03-28T08:25:41.886Z,977.94
2024-03-28T08:26:41.893Z,977.97
2024-03-28T08:27:41.880Z,977.98
2024-03-28T08:28:41.858Z,977.95
2024-03-28T08:29:41.845Z,978.02
2024-03-28T08:30:41.826Z,978.00
2024-03-28T08:31:41.834Z,977.95
2024-03-28T08:32:41.808Z,977.94
2024-03-28T08:33:41.808Z,978.03
2024-03-28T08:34:41.794Z,977.93
2024-03-28T08:35:41.778Z,977.94
2024-03-28T08:36:41.775Z,977.88
2024-03-28T08:37:41.751Z,977.91
2024-03-28T08:38:41.739Z,977.90
2024-03-28T08:39:41.738Z,977.97
2024-03-28T08:40:41.744Z,977.99
2024-03-28T08:41:41.731Z,977.91
2024-03-28T08:42:41.701Z,977.99
2024-03-28T08:43:41.690Z,978.01
2024-03-28T08:44:41.670Z,977.99
2024-03-28T08:45:41.677Z,977.98
2024-03-28T08:46:41.647Z,977.98
2024-03-28T08:47:41.641Z,978.04
2024-03-28T08:48:41.623Z,978.01
2024-03-28T08:49:41.625Z,977.91
2024-03-28T08:50:41.613Z,977.96
2024-03-28T08:51:41.607Z,977.98
2024-03-28T08:52:41.582Z,978.00
2024-03-28T08:53:41.572Z,977.97
2024-03-28T08:54:41.577Z,977.86
2024-03-28T08:55:41.568Z,977.88
2024-03-28T08:56:41.534Z,977.80
2024-03-28T08:57:41.527Z,977.77
2024-03-28T08:58:41.517Z,977.85
2024-03-28T08:59:41.525Z,977.74
2024-03-28T09:00:41.491Z,977.75
2024-03-28T09:01:41.490Z,977.77
2024-03-28T09:02:41.558Z,977.76
2024-03-28T09:03:41.464Z,977.66
2024-03-28T09:04:41.461Z,977.75
2024-03-28T09:05:41.444Z,977.78
2024-03-28T09:06:41.442Z,977.76
2024-03-28T09:07:41.418Z,977.79
2024-03-28T09:08:41.431Z,977.84
2024-03-28T09:09:41.420Z,977.80
2024-03-28T09:10:41.413Z,977.81
2024-03-28T09:11:41.383Z,977.79
2024-03-28T09:12:41.354Z,977.78
2024-03-28T09:13:41.374Z,977.78
2024-03-28T09:14:41.346Z,977.75
2024-03-28T09:15:41.350Z,977.78
2024-03-28T09:16:41.313Z,977.80
2024-03-28T09:17:41.304Z,977.75
2024-03-28T09:18:41.312Z,977.80
2024-03-28T09:19:41.283Z,977.84
2024-03-28T09:20:41.291Z,977.78
2024-03-28T09:21:41.259Z,977.86
2024-03-28T09:22:41.268Z,977.85
2024-03-28T09:23:41.254Z,977.88
2024-03-28T09:24:41.262Z,977.85
2024-03-28T09:25:47.269Z,977.85
2024-03-28T09:26:44.633Z,977.83
2024-03-28T09:27:41.198Z,977.95
2024-03-28T09:28:41.181Z,977.99
2024-03-28T09:29:41.172Z,978.00
2024-03-28T09:30:41.163Z,977.99
2024-03-28T09:31:41.142Z,977.95
2024-03-28T09:32:41.159Z,978.04
2024-03-28T09:33:41.121Z,978.02
2024-03-28T09:34:41.115Z,978.02
2024-03-28T09:35:41.111Z,977.96
2024-03-28T09:36:41.106Z,977.99
2024-03-28T09:37:41.104Z,977.97
2024-03-28T09:38:41.067Z,978.03
2024-03-28T09:39:41.060Z,977.95
2024-03-28T09:40:41.047Z,978.04
2024-03-28T09:41:41.044Z,978.04
2024-03-28T09:42:41.030Z,978.01
2024-03-28T09:43:41.008Z,978.07
2024-03-28T09:44:41.000Z,978.08
2024-03-28T09:45:40.991Z,978.09
2024-03-28T09:46:40.992Z,978.11
2024-03-28T09:47:40.961Z,978.00
2024-03-28T09:48:40.958Z,978.12
2024-03-28T09:49:40.950Z,978.10
2024-03-28T09:50:40.958Z,978.18
2024-03-28T09:51:40.931Z,978.05
2024-03-28T09:52:40.911Z,978.10
2024-03-28T09:53:40.901Z,978.14
2024-03-28T09:54:40.899Z,978.08
2024-03-28T09:55:40.881Z,978.09
2024-03-28T09:56:40.869Z,978.21
2024-03-28T09:57:40.852Z,978.19
2024-03-28T09:58:40.843Z,978.24
2024-03-28T09:59:40.830Z,978.32
2024-03-28T10:00:40.837Z,978.34
2024-03-28T10:01:40.807Z,978.41
2024-03-28T10:02:40.799Z,978.41
2024-03-28T10:03:40.782Z,978.36
2024-03-28T10:04:40.786Z,978.41
2024-03-28T10:05:40.772Z,978.40
2024-03-28T10:06:40.755Z,978.43
2024-03-28T10:07:40.744Z,978.50
2024-03-28T10:08:40.737Z,978.57
2024-03-28T10:09:40.733Z,978.46
2024-03-28T10:10:40.725Z,978.54
2024-03-28T10:11:40.705Z,978.66
2024-03-28T10:12:40.690Z,978.61
2024-03-28T10:13:40.672Z,978.70
2024-03-28T10:14:40.683Z,978.76
2024-03-28T10:15:40.649Z,978.75
2024-03-28T10:16:40.650Z,978.80
2024-03-28T10:17:40.643Z,978.82
2024-03-28T10:18:40.634Z,978.80
2024-03-28T10:19:40.615Z,978.81
2024-03-28T10:20:40.606Z,978.95
2024-03-28T10:21:40.587Z,978.93
2024-03-28T10:22:40.572Z,979.04
2024-03-28T10:23:40.568Z,979.07
2024-03-28T10:24:40.559Z,979.22
2024-03-28T10:25:40.551Z,979.24
2024-03-28T10:26:40.531Z,979.27
2024-03-28T10:27:40.513Z,979.21
2024-03-28T10:28:40.520Z,979.30
2024-03-28T10:29:40.492Z,979.28
2024-03-28T10:30:40.490Z,979.23
2024-03-28T10:31:40.466Z,979.25
2024-03-28T10:32:40.484Z,979.34
2024-03-28T10:33:40.456Z,979.34
2024-03-28T10:34:40.462Z,979.36
2024-03-28T10:35:40.425Z,979.44
2024-03-28T10:36:40.422Z,979.44
2024-03-28T10:37:49.594Z,979.49
2024-03-28T10:38:40.419Z,979.43
2024-03-28T10:39:40.383Z,979.49
2024-03-28T10:40:40.380Z,979.52
2024-03-28T10:41:40.359Z,979.49
2024-03-28T10:42:40.365Z,979.53
2024-03-28T10:43:40.335Z,979.55
2024-03-28T10:44:40.331Z,979.53
2024-03-28T10:45:40.314Z,979.57
2024-03-28T10:46:40.323Z,979.55
2024-03-28T10:47:40.327Z,979.54
2024-03-28T10:48:40.286Z,979.57
2024-03-28T10:49:42.382Z,979.61
2024-03-28T10:50:40.262Z,979.58
2024-03-28T10:51:40.257Z,979.61
2024-03-28T10:52:40.258Z,979.60
2024-03-28T10:53:40.223Z,979.59
2024-03-28T10:54:40.218Z,979.55
2024-03-28T10:55:40.346Z,979.55
2024-03-28T10:56:40.205Z,979.55
2024-03-28T10:57:40.176Z,979.54
2024-03-28T10:58:40.178Z,979.60
2024-03-28T10:59:40.195Z,979.60
2024-03-28T11:00:40.160Z,979.67
2024-03-28T11:01:40.183Z,979.62
2024-03-28T11:02:40.152Z,979.58
2024-03-28T11:03:40.121Z,979.65
2024-03-28T11:04:40.110Z,979.69
2024-03-28T11:05:40.106Z,979.68
2024-03-28T11:06:40.097Z,979.73
2024-03-28T11:07:40.099Z,979.70
2024-03-28T11:08:40.069Z,979.77
2024-03-28T11:09:40.054Z,979.74
2024-03-28T11:10:40.125Z,979.76
2024-03-28T11:11:40.028Z,979.75
2024-03-28T11:12:40.025Z,979.80
2024-03-28T11:13:40.016Z,979.80
2024-03-28T11:14:39.993Z,979.79
2024-03-28T11:15:40.221Z,979.79
2024-03-28T11:16:39.967Z,979.86
2024-03-28T11:17:39.965Z,979.88
2024-03-28T11:18:39.948Z,979.81
2024-03-28T11:19:40.003Z,979.89
2024-03-28T11:20:39.934Z,979.87
2024-03-28T11:21:39.921Z,979.86
2024-03-28T11:22:39.903Z,979.92
2024-03-28T11:23:39.904Z,979.95
2024-03-28T11:24:39.888Z,979.92
2024-03-28T11:25:40.654Z,979.96
2024-03-28T11:26:39.860Z,979.97
2024-03-28T11:27:39.852Z,980.02
2024-03-28T11:28:39.871Z,980.01
2024-03-28T11:29:39.843Z,980.05
2024-03-28T11:30:39.817Z,980.08
2024-03-28T11:31:44.180Z,980.06
2024-03-28T11:32:39.799Z,980.07
2024-03-28T11:33:39.808Z,980.10
2024-03-28T11:34:39.793Z,980.06
2024-03-28T11:35:39.775Z,980.11
2024-03-28T11:36:39.754Z,980.13
2024-03-28T11:37:39.758Z,980.08
2024-03-28T11:38:39.752Z,980.12
2024-03-28T11:39:39.718Z,980.12
2024-03-28T11:40:39.718Z,980.10
2024-03-28T11:41:39.702Z,980.14
2024-03-28T11:42:45.920Z,980.15
2024-03-28T11:43:39.705Z,980.16
2024-03-28T11:44:39.674Z,980.14
2024-03-28T11:45:39.655Z,980.14
2024-03-28T11:46:39.636Z,980.18
2024-03-28T11:47:39.650Z,980.19
2024-03-28T11:48:39.629Z,980.16
2024-03-28T11:49:39.635Z,980.24
2024-03-28T11:50:39.590Z,980.17
2024-03-28T11:51:39.586Z,980.26
2024-03-28T11:52:39.657Z,980.27
2024-03-28T11:53:40.238Z,980.26
2024-03-28T11:54:39.547Z,980.31
2024-03-28T11:55:39.578Z,980.29
2024-03-28T11:56:39.534Z,980.29
2024-03-28T11:57:39.547Z,980.33
2024-03-28T11:58:39.527Z,980.28
2024-03-28T11:59:39.507Z,980.31
2024-03-28T12:00:39.493Z,980.32
2024-03-28T12:01:40.016Z,980.32
2024-03-28T12:02:39.489Z,980.31
2024-03-28T12:03:39.504Z,980.35
2024-03-28T12:04:39.469Z,980.36
2024-03-28T12:05:39.430Z,980.34
2024-03-28T12:06:39.432Z,980.34
2024-03-28T12:07:42.020Z,980.40
2024-03-28T12:08:42.774Z,980.43
2024-03-28T12:09:39.386Z,980.46
2024-03-28T12:10:39.398Z,980.44
2024-03-28T12:11:39.389Z,980.47
2024-03-28T12:12:39.349Z,980.46
2024-03-28T12:13:39.397Z,980.47
2024-03-28T12:14:39.329Z,980.51
2024-03-28T12:15:39.339Z,980.56
2024-03-28T12:16:39.343Z,980.55
2024-03-28T12:17:39.294Z,980.57
2024-03-28T12:18:39.290Z,980.63
2024-03-28T12:19:39.343Z,980.63
2024-03-28T12:20:39.272Z,980.64
2024-03-28T12:21:39.260Z,980.67
2024-03-28T12:22:39.269Z,980.80
2024-03-28T12:23:39.235Z,980.82
2024-03-28T12:24:39.216Z,980.86
2024-03-28T12:25:39.258Z,980.89
2024-03-28T12:26:39.198Z,980.88
2024-03-28T12:27:39.181Z,980.85
2024-03-28T12:28:39.207Z,980.99